sensor_id;sensor_type;location;lat;lon;timestamp;temperature;humidity
41310;DHT22;27057;51.438;-0.010;2024-03-08T00:00:24;6.50;99.90
41310;DHT22;27057;51.438;-0.010;2024-03-08T00:02:52;6.50;99.90
41310;DHT22;27057;51.438;-0.010;2024-03-08T00:05:20;6.40;99.90
41310;DHT22;27057;51.438;-0.010;2024-03-08T00:07:50;6.40;99.90
41310;DHT22;27057;51.438;-0.010;2024-03-08T00:10:18;6.40;99.90
41310;DHT22;27057;51.438;-0.010;2024-03-08T00:12:57;6.40;99.90
41310;DHT22;27057;51.438;-0.010;2024-03-08T00:15:25;6.40;99.90
41310;DHT22;27057;51.438;-0.010;2024-03-08T00:17:54;6.40;99.90
41310;DHT22;27057;51.438;-0.010;2024-03-08T00:20:22;6.30;99.90
41310;DHT22;27057;51.438;-0.010;2024-03-08T00:22:50;6.40;99.90
41310;DHT22;27057;51.438;-0.010;2024-03-08T00:25:18;6.40;99.90
41310;DHT22;27057;51.438;-0.010;2024-03-08T00:27:45;6.40;99.90
41310;DHT22;27057;51.438;-0.010;2024-03-08T00:30:17;6.40;99.90
41310;DHT22;27057;51.438;-0.010;2024-03-08T00:32:44;6.30;99.90
41310;DHT22;27057;51.438;-0.010;2024-03-08T00:35:12;6.40;99.90
41310;DHT22;27057;51.438;-0.010;2024-03-08T00:37:40;6.30;99.90
41310;DHT22;27057;51.438;-0.010;2024-03-08T00:40:09;6.30;99.90
41310;DHT22;27057;51.438;-0.010;2024-03-08T00:42:38;6.30;99.90
41310;DHT22;27057;51.438;-0.010;2024-03-08T00:45:08;6.30;99.90
41310;DHT22;27057;51.438;-0.010;2024-03-08T00:47:35;6.30;99.90
41310;DHT22;27057;51.438;-0.010;2024-03-08T00:50:03;6.30;99.90
41310;DHT22;27057;51.438;-0.010;2024-03-08T00:52:31;6.40;99.90
41310;DHT22;27057;51.438;-0.010;2024-03-08T00:54:59;6.30;99.90
41310;DHT22;27057;51.438;-0.010;2024-03-08T00:57:27;6.30;99.90
41310;DHT22;27057;51.438;-0.010;2024-03-08T00:59:56;6.40;99.90
41310;DHT22;27057;51.438;-0.010;2024-03-08T01:02:26;6.40;99.90
41310;DHT22;27057;51.438;-0.010;2024-03-08T01:04:54;6.30;99.90
41310;DHT22;27057;51.438;-0.010;2024-03-08T01:07:22;6.30;99.90
41310;DHT22;27057;51.438;-0.010;2024-03-08T01:09:49;6.30;99.90
41310;DHT22;27057;51.438;-0.010;2024-03-08T01:12:18;6.30;99.90
41310;DHT22;27057;51.438;-0.010;2024-03-08T01:14:45;6.30;99.90
41310;DHT22;27057;51.438;-0.010;2024-03-08T01:17:13;6.20;99.90
41310;DHT22;27057;51.438;-0.010;2024-03-08T01:19:40;6.30;99.90
41310;DHT22;27057;51.438;-0.010;2024-03-08T01:22:08;6.20;99.90
41310;DHT22;27057;51.438;-0.010;2024-03-08T01:24:35;6.30;99.90
41310;DHT22;27057;51.438;-0.010;2024-03-08T01:27:03;6.30;99.90
41310;DHT22;27057;51.438;-0.010;2024-03-08T01:29:30;6.30;99.90
41310;DHT22;27057;51.438;-0.010;2024-03-08T01:31:58;6.20;99.90
41310;DHT22;27057;51.438;-0.010;2024-03-08T01:34:29;6.20;99.90
41310;DHT22;27057;51.438;-0.010;2024-03-08T01:36:56;6.20;99.90
41310;DHT22;27057;51.438;-0.010;2024-03-08T01:39:24;6.20;99.90
41310;DHT22;27057;51.438;-0.010;2024-03-08T01:41:52;6.10;99.90
41310;DHT22;27057;51.438;-0.010;2024-03-08T01:44:24;6.10;99.90
41310;DHT22;27057;51.438;-0.010;2024-03-08T01:46:53;6.10;99.90
41310;DHT22;27057;51.438;-0.010;2024-03-08T01:49:21;6.00;99.90
41310;DHT22;27057;51.438;-0.010;2024-03-08T01:51:49;6.00;99.90
41310;DHT22;27057;51.438;-0.010;2024-03-08T01:54:18;6.10;99.90
41310;DHT22;27057;51.438;-0.010;2024-03-08T01:56:48;6.10;99.90
41310;DHT22;27057;51.438;-0.010;2024-03-08T01:59:16;6.10;99.90
41310;DHT22;27057;51.438;-0.010;2024-03-08T02:01:45;6.10;99.90
41310;DHT22;27057;51.438;-0.010;2024-03-08T02:04:12;6.10;99.90
41310;DHT22;27057;51.438;-0.010;2024-03-08T02:06:40;6.10;99.90
41310;DHT22;27057;51.438;-0.010;2024-03-08T02:09:07;6.10;99.90
41310;DHT22;27057;51.438;-0.010;2024-03-08T02:11:35;6.10;99.90
41310;DHT22;27057;51.438;-0.010;2024-03-08T02:14:06;6.10;99.90
41310;DHT22;27057;51.438;-0.010;2024-03-08T02:16:34;6.10;99.90
41310;DHT22;27057;51.438;-0.010;2024-03-08T02:19:02;6.10;99.90
41310;DHT22;27057;51.438;-0.010;2024-03-08T02:21:29;6.10;99.90
41310;DHT22;27057;51.438;-0.010;2024-03-08T02:23:58;6.10;99.90
41310;DHT22;27057;51.438;-0.010;2024-03-08T02:26:26;6.10;99.90
41310;DHT22;27057;51.438;-0.010;2024-03-08T02:28:55;6.10;99.90
41310;DHT22;27057;51.438;-0.010;2024-03-08T02:31:22;6.10;99.90
41310;DHT22;27057;51.438;-0.010;2024-03-08T02:33:50;6.10;99.90
41310;DHT22;27057;51.438;-0.010;2024-03-08T02:36:17;6.10;99.90
41310;DHT22;27057;51.438;-0.010;2024-03-08T02:38:45;6.10;99.90
41310;DHT22;27057;51.438;-0.010;2024-03-08T02:41:13;6.00;99.90
41310;DHT22;27057;51.438;-0.010;2024-03-08T02:43:40;6.00;99.90
41310;DHT22;27057;51.438;-0.010;2024-03-08T02:46:08;6.00;99.90
41310;DHT22;27057;51.438;-0.010;2024-03-08T02:48:35;6.00;99.90
41310;DHT22;27057;51.438;-0.010;2024-03-08T02:51:03;6.00;99.90
41310;DHT22;27057;51.438;-0.010;2024-03-08T02:53:32;6.00;99.90
41310;DHT22;27057;51.438;-0.010;2024-03-08T02:55:59;5.90;99.90
41310;DHT22;27057;51.438;-0.010;2024-03-08T02:58:26;5.90;99.90
41310;DHT22;27057;51.438;-0.010;2024-03-08T03:00:54;5.90;99.90
41310;DHT22;27057;51.438;-0.010;2024-03-08T03:03:22;5.90;99.90
41310;DHT22;27057;51.438;-0.010;2024-03-08T03:05:49;5.90;99.90
41310;DHT22;27057;51.438;-0.010;2024-03-08T03:08:18;5.90;99.90
41310;DHT22;27057;51.438;-0.010;2024-03-08T03:10:46;5.90;99.90
41310;DHT22;27057;51.438;-0.010;2024-03-08T03:13:15;5.90;99.90
41310;DHT22;27057;51.438;-0.010;2024-03-08T03:15:42;5.90;99.90
41310;DHT22;27057;51.438;-0.010;2024-03-08T03:18:10;5.90;99.90
41310;DHT22;27057;51.438;-0.010;2024-03-08T03:20:39;5.90;99.90
41310;DHT22;27057;51.438;-0.010;2024-03-08T03:23:10;5.80;99.90
41310;DHT22;27057;51.438;-0.010;2024-03-08T03:25:43;5.90;99.90
41310;DHT22;27057;51.438;-0.010;2024-03-08T03:28:14;5.90;99.90
41310;DHT22;27057;51.438;-0.010;2024-03-08T03:30:45;5.80;99.90
41310;DHT22;27057;51.438;-0.010;2024-03-08T03:33:14;5.80;99.90
41310;DHT22;27057;51.438;-0.010;2024-03-08T03:35:45;5.80;99.90
41310;DHT22;27057;51.438;-0.010;2024-03-08T03:38:13;5.80;99.90
41310;DHT22;27057;51.438;-0.010;2024-03-08T03:40:42;5.80;99.90
41310;DHT22;27057;51.438;-0.010;2024-03-08T03:43:09;5.80;99.90
41310;DHT22;27057;51.438;-0.010;2024-03-08T03:45:39;5.80;99.90
41310;DHT22;27057;51.438;-0.010;2024-03-08T03:48:10;5.70;99.90
41310;DHT22;27057;51.438;-0.010;2024-03-08T03:50:39;5.70;99.90
41310;DHT22;27057;51.438;-0.010;2024-03-08T03:53:08;5.70;99.90
41310;DHT22;27057;51.438;-0.010;2024-03-08T03:55:38;5.70;99.90
41310;DHT22;27057;51.438;-0.010;2024-03-08T03:58:10;5.70;99.90
41310;DHT22;27057;51.438;-0.010;2024-03-08T04:00:38;5.60;99.90
41310;DHT22;27057;51.438;-0.010;2024-03-08T04:03:06;5.70;99.90
41310;DHT22;27057;51.438;-0.010;2024-03-08T04:05:34;5.70;99.90
41310;DHT22;27057;51.438;-0.010;2024-03-08T04:08:02;5.70;99.90
41310;DHT22;27057;51.438;-0.010;2024-03-08T04:10:31;5.70;99.90
41310;DHT22;27057;51.438;-0.010;2024-03-08T04:13:01;5.60;99.90
41310;DHT22;27057;51.438;-0.010;2024-03-08T04:15:31;5.60;99.90
41310;DHT22;27057;51.438;-0.010;2024-03-08T04:18:00;5.60;99.90
41310;DHT22;27057;51.438;-0.010;2024-03-08T04:20:28;5.60;99.90
41310;DHT22;27057;51.438;-0.010;2024-03-08T04:22:55;5.60;99.90
41310;DHT22;27057;51.438;-0.010;2024-03-08T04:25:23;5.60;99.90
41310;DHT22;27057;51.438;-0.010;2024-03-08T04:27:50;5.50;99.90
41310;DHT22;27057;51.438;-0.010;2024-03-08T04:30:19;5.60;99.90
41310;DHT22;27057;51.438;-0.010;2024-03-08T04:32:48;5.60;99.90
41310;DHT22;27057;51.438;-0.010;2024-03-08T04:35:18;5.60;99.90
41310;DHT22;27057;51.438;-0.010;2024-03-08T04:37:55;5.50;99.90
41310;DHT22;27057;51.438;-0.010;2024-03-08T04:40:25;5.60;99.90
41310;DHT22;27057;51.438;-0.010;2024-03-08T04:42:54;5.60;99.90
41310;DHT22;27057;51.438;-0.010;2024-03-08T04:45:21;5.50;99.90
41310;DHT22;27057;51.438;-0.010;2024-03-08T04:47:49;5.60;99.90
41310;DHT22;27057;51.438;-0.010;2024-03-08T04:50:20;5.60;99.90
41310;DHT22;27057;51.438;-0.010;2024-03-08T04:52:48;5.60;99.90
41310;DHT22;27057;51.438;-0.010;2024-03-08T04:55:16;5.60;99.90
41310;DHT22;27057;51.438;-0.010;2024-03-08T04:57:44;5.60;99.90
41310;DHT22;27057;51.438;-0.010;2024-03-08T05:00:14;5.60;99.90
41310;DHT22;27057;51.438;-0.010;2024-03-08T05:02:42;5.60;99.90
41310;DHT22;27057;51.438;-0.010;2024-03-08T05:05:10;5.50;99.90
41310;DHT22;27057;51.438;-0.010;2024-03-08T05:07:41;5.50;99.90
41310;DHT22;27057;51.438;-0.010;2024-03-08T05:10:11;5.50;99.90
41310;DHT22;27057;51.438;-0.010;2024-03-08T05:12:41;5.50;99.90
41310;DHT22;27057;51.438;-0.010;2024-03-08T05:15:08;5.50;99.90
41310;DHT22;27057;51.438;-0.010;2024-03-08T05:17:36;5.50;99.90
41310;DHT22;27057;51.438;-0.010;2024-03-08T05:20:04;5.60;99.90
41310;DHT22;27057;51.438;-0.010;2024-03-08T05:22:37;5.50;99.90
41310;DHT22;27057;51.438;-0.010;2024-03-08T05:25:05;5.60;99.90
41310;DHT22;27057;51.438;-0.010;2024-03-08T05:27:35;5.60;99.90
41310;DHT22;27057;51.438;-0.010;2024-03-08T05:30:03;5.60;99.90
41310;DHT22;27057;51.438;-0.010;2024-03-08T05:32:34;5.60;99.90
41310;DHT22;27057;51.438;-0.010;2024-03-08T05:35:01;5.60;99.90
41310;DHT22;27057;51.438;-0.010;2024-03-08T05:37:30;5.50;99.90
41310;DHT22;27057;51.438;-0.010;2024-03-08T05:39:58;5.60;99.90
41310;DHT22;27057;51.438;-0.010;2024-03-08T05:42:26;5.60;99.90
41310;DHT22;27057;51.438;-0.010;2024-03-08T05:44:55;5.60;99.90
41310;DHT22;27057;51.438;-0.010;2024-03-08T05:47:25;5.60;99.90
41310;DHT22;27057;51.438;-0.010;2024-03-08T05:49:57;5.50;99.90
41310;DHT22;27057;51.438;-0.010;2024-03-08T05:52:25;5.50;99.90
41310;DHT22;27057;51.438;-0.010;2024-03-08T05:54:53;5.60;99.90
41310;DHT22;27057;51.438;-0.010;2024-03-08T05:57:20;5.60;99.90
41310;DHT22;27057;51.438;-0.010;2024-03-08T05:59:50;5.60;99.90
41310;DHT22;27057;51.438;-0.010;2024-03-08T06:02:18;5.60;99.90
41310;DHT22;27057;51.438;-0.010;2024-03-08T06:04:46;5.60;99.90
41310;DHT22;27057;51.438;-0.010;2024-03-08T06:07:14;5.60;99.90
41310;DHT22;27057;51.438;-0.010;2024-03-08T06:09:41;5.60;99.90
41310;DHT22;27057;51.438;-0.010;2024-03-08T06:12:13;5.60;99.90
41310;DHT22;27057;51.438;-0.010;2024-03-08T06:14:46;5.60;99.90
41310;DHT22;27057;51.438;-0.010;2024-03-08T06:17:14;5.50;99.90
41310;DHT22;27057;51.438;-0.010;2024-03-08T06:19:42;5.50;99.90
41310;DHT22;27057;51.438;-0.010;2024-03-08T06:22:12;5.50;99.90
41310;DHT22;27057;51.438;-0.010;2024-03-08T06:24:41;5.50;99.90
41310;DHT22;27057;51.438;-0.010;2024-03-08T06:27:08;5.50;99.90
41310;DHT22;27057;51.438;-0.010;2024-03-08T06:29:37;5.50;99.90
41310;DHT22;27057;51.438;-0.010;2024-03-08T06:32:04;5.50;99.90
41310;DHT22;27057;51.438;-0.010;2024-03-08T06:34:35;5.50;99.90
41310;DHT22;27057;51.438;-0.010;2024-03-08T06:37:02;5.40;99.90
41310;DHT22;27057;51.438;-0.010;2024-03-08T06:39:30;5.40;99.90
41310;DHT22;27057;51.438;-0.010;2024-03-08T06:41:59;5.40;99.90
41310;DHT22;27057;51.438;-0.010;2024-03-08T06:44:28;5.40;99.90
41310;DHT22;27057;51.438;-0.010;2024-03-08T06:46:56;5.40;99.90
41310;DHT22;27057;51.438;-0.010;2024-03-08T06:49:27;5.40;99.90
41310;DHT22;27057;51.438;-0.010;2024-03-08T06:51:54;5.40;99.90
41310;DHT22;27057;51.438;-0.010;2024-03-08T06:54:24;5.50;99.90
41310;DHT22;27057;51.438;-0.010;2024-03-08T06:56:52;5.50;99.90
41310;DHT22;27057;51.438;-0.010;2024-03-08T06:59:19;5.40;99.90
41310;DHT22;27057;51.438;-0.010;2024-03-08T07:01:47;5.50;99.90
41310;DHT22;27057;51.438;-0.010;2024-03-08T07:04:15;5.50;99.90
41310;DHT22;27057;51.438;-0.010;2024-03-08T07:06:45;5.50;99.90
41310;DHT22;27057;51.438;-0.010;2024-03-08T07:09:12;5.50;99.90
41310;DHT22;27057;51.438;-0.010;2024-03-08T07:11:40;5.50;99.90
41310;DHT22;27057;51.438;-0.010;2024-03-08T07:14:11;5.50;99.90
41310;DHT22;27057;51.438;-0.010;2024-03-08T07:16:38;5.50;99.90
41310;DHT22;27057;51.438;-0.010;2024-03-08T07:19:08;5.50;99.90
41310;DHT22;27057;51.438;-0.010;2024-03-08T07:21:36;5.50;99.90
41310;DHT22;27057;51.438;-0.010;2024-03-08T07:24:03;5.50;99.90
41310;DHT22;27057;51.438;-0.010;2024-03-08T07:26:49;5.60;99.90
41310;DHT22;27057;51.438;-0.010;2024-03-08T07:29:19;5.60;99.90
41310;DHT22;27057;51.438;-0.010;2024-03-08T07:31:58;5.60;99.90
41310;DHT22;27057;51.438;-0.010;2024-03-08T07:34:29;5.70;99.90
41310;DHT22;27057;51.438;-0.010;2024-03-08T07:36:59;5.70;99.90
41310;DHT22;27057;51.438;-0.010;2024-03-08T07:39:29;5.70;99.90
41310;DHT22;27057;51.438;-0.010;2024-03-08T07:41:56;5.80;99.90
41310;DHT22;27057;51.438;-0.010;2024-03-08T07:44:27;5.90;99.90
41310;DHT22;27057;51.438;-0.010;2024-03-08T07:46:55;5.90;99.90
41310;DHT22;27057;51.438;-0.010;2024-03-08T07:49:24;5.90;99.90
41310;DHT22;27057;51.438;-0.010;2024-03-08T07:51:52;6.00;99.90
41310;DHT22;27057;51.438;-0.010;2024-03-08T07:54:24;6.00;99.90
41310;DHT22;27057;51.438;-0.010;2024-03-08T07:56:53;6.10;99.90
41310;DHT22;27057;51.438;-0.010;2024-03-08T07:59:20;6.10;99.90
41310;DHT22;27057;51.438;-0.010;2024-03-08T08:01:48;6.20;99.90
41310;DHT22;27057;51.438;-0.010;2024-03-08T08:04:17;6.30;99.90
41310;DHT22;27057;51.438;-0.010;2024-03-08T08:06:46;6.30;99.90
41310;DHT22;27057;51.438;-0.010;2024-03-08T08:09:16;6.40;99.90
41310;DHT22;27057;51.438;-0.010;2024-03-08T08:11:51;6.40;99.90
41310;DHT22;27057;51.438;-0.010;2024-03-08T08:14:19;6.50;99.90
41310;DHT22;27057;51.438;-0.010;2024-03-08T08:16:48;6.50;99.90
41310;DHT22;27057;51.438;-0.010;2024-03-08T08:19:19;6.60;99.90
41310;DHT22;27057;51.438;-0.010;2024-03-08T08:21:46;6.60;99.90
41310;DHT22;27057;51.438;-0.010;2024-03-08T08:24:14;6.70;99.90
41310;DHT22;27057;51.438;-0.010;2024-03-08T08:26:45;6.80;99.90
41310;DHT22;27057;51.438;-0.010;2024-03-08T08:29:12;6.70;99.90
41310;DHT22;27057;51.438;-0.010;2024-03-08T08:31:40;6.80;99.90
41310;DHT22;27057;51.438;-0.010;2024-03-08T08:34:09;6.90;99.90
41310;DHT22;27057;51.438;-0.010;2024-03-08T08:36:37;6.90;99.90
41310;DHT22;27057;51.438;-0.010;2024-03-08T08:39:06;6.90;99.90
41310;DHT22;27057;51.438;-0.010;2024-03-08T08:41:40;7.10;99.90
41310;DHT22;27057;51.438;-0.010;2024-03-08T08:44:09;7.00;99.90
41310;DHT22;27057;51.438;-0.010;2024-03-08T08:46:43;7.10;99.90
41310;DHT22;27057;51.438;-0.010;2024-03-08T08:49:11;7.20;99.90
41310;DHT22;27057;51.438;-0.010;2024-03-08T08:51:51;7.10;99.90
41310;DHT22;27057;51.438;-0.010;2024-03-08T08:54:21;7.20;99.90
41310;DHT22;27057;51.438;-0.010;2024-03-08T08:56:50;7.30;99.90
41310;DHT22;27057;51.438;-0.010;2024-03-08T08:59:18;7.30;99.90
41310;DHT22;27057;51.438;-0.010;2024-03-08T09:01:51;7.40;99.90
41310;DHT22;27057;51.438;-0.010;2024-03-08T09:04:26;7.50;99.90
41310;DHT22;27057;51.438;-0.010;2024-03-08T09:06:53;7.50;99.90
41310;DHT22;27057;51.438;-0.010;2024-03-08T09:09:21;7.60;99.90
41310;DHT22;27057;51.438;-0.010;2024-03-08T09:11:49;7.70;99.90
41310;DHT22;27057;51.438;-0.010;2024-03-08T09:14:18;7.70;99.90
41310;DHT22;27057;51.438;-0.010;2024-03-08T09:16:50;7.70;99.90
41310;DHT22;27057;51.438;-0.010;2024-03-08T09:19:18;7.80;99.90
41310;DHT22;27057;51.438;-0.010;2024-03-08T09:21:46;7.90;99.90
41310;DHT22;27057;51.438;-0.010;2024-03-08T09:24:14;8.00;99.90
41310;DHT22;27057;51.438;-0.010;2024-03-08T09:26:41;8.10;99.90
41310;DHT22;27057;51.438;-0.010;2024-03-08T09:29:10;8.20;99.90
41310;DHT22;27057;51.438;-0.010;2024-03-08T09:31:38;8.30;99.90
41310;DHT22;27057;51.438;-0.010;2024-03-08T09:34:06;8.40;99.90
41310;DHT22;27057;51.438;-0.010;2024-03-08T09:36:37;8.60;99.90
41310;DHT22;27057;51.438;-0.010;2024-03-08T09:39:04;8.70;99.90
41310;DHT22;27057;51.438;-0.010;2024-03-08T09:41:34;8.80;99.90
41310;DHT22;27057;51.438;-0.010;2024-03-08T09:44:04;8.90;99.90
41310;DHT22;27057;51.438;-0.010;2024-03-08T09:46:34;9.10;99.90
41310;DHT22;27057;51.438;-0.010;2024-03-08T09:49:02;9.10;99.90
41310;DHT22;27057;51.438;-0.010;2024-03-08T09:51:33;9.10;99.90
41310;DHT22;27057;51.438;-0.010;2024-03-08T09:54:02;9.20;99.90
41310;DHT22;27057;51.438;-0.010;2024-03-08T09:56:43;9.30;99.90
41310;DHT22;27057;51.438;-0.010;2024-03-08T09:59:14;9.40;99.90
41310;DHT22;27057;51.438;-0.010;2024-03-08T10:01:50;9.40;99.90
41310;DHT22;27057;51.438;-0.010;2024-03-08T10:04:19;9.30;99.90
41310;DHT22;27057;51.438;-0.010;2024-03-08T10:06:47;9.30;99.90
41310;DHT22;27057;51.438;-0.010;2024-03-08T10:09:15;9.20;99.90
41310;DHT22;27057;51.438;-0.010;2024-03-08T10:11:43;9.00;99.90
41310;DHT22;27057;51.438;-0.010;2024-03-08T10:14:11;9.00;99.90
41310;DHT22;27057;51.438;-0.010;2024-03-08T10:16:39;9.00;99.90
41310;DHT22;27057;51.438;-0.010;2024-03-08T10:19:07;9.10;99.90
41310;DHT22;27057;51.438;-0.010;2024-03-08T10:21:35;9.10;99.90
41310;DHT22;27057;51.438;-0.010;2024-03-08T10:24:05;9.20;99.90
41310;DHT22;27057;51.438;-0.010;2024-03-08T10:26:32;9.30;99.90
41310;DHT22;27057;51.438;-0.010;2024-03-08T10:29:00;9.50;99.90
41310;DHT22;27057;51.438;-0.010;2024-03-08T10:31:35;9.70;99.90
41310;DHT22;27057;51.438;-0.010;2024-03-08T10:34:03;9.80;99.90
41310;DHT22;27057;51.438;-0.010;2024-03-08T10:36:33;9.90;99.90
41310;DHT22;27057;51.438;-0.010;2024-03-08T10:39:03;10.10;99.90
41310;DHT22;27057;51.438;-0.010;2024-03-08T10:41:35;10.10;99.90
41310;DHT22;27057;51.438;-0.010;2024-03-08T10:44:14;10.20;99.90
41310;DHT22;27057;51.438;-0.010;2024-03-08T10:47:15;10.30;99.90
41310;DHT22;27057;51.438;-0.010;2024-03-08T10:52:24;10.30;99.90
41310;DHT22;27057;51.438;-0.010;2024-03-08T10:54:52;10.20;99.90
41310;DHT22;27057;51.438;-0.010;2024-03-08T10:57:22;10.30;99.90
41310;DHT22;27057;51.438;-0.010;2024-03-08T10:59:51;10.20;99.90
41310;DHT22;27057;51.438;-0.010;2024-03-08T11:02:25;10.20;99.90
41310;DHT22;27057;51.438;-0.010;2024-03-08T11:04:55;10.30;99.90
41310;DHT22;27057;51.438;-0.010;2024-03-08T11:07:25;10.30;99.90
41310;DHT22;27057;51.438;-0.010;2024-03-08T11:09:56;10.50;99.90
41310;DHT22;27057;51.438;-0.010;2024-03-08T11:12:36;10.50;99.90
41310;DHT22;27057;51.438;-0.010;2024-03-08T11:15:12;10.60;99.90
41310;DHT22;27057;51.438;-0.010;2024-03-08T11:17:48;10.50;99.90
41310;DHT22;27057;51.438;-0.010;2024-03-08T11:20:18;10.60;99.90
41310;DHT22;27057;51.438;-0.010;2024-03-08T11:22:49;10.70;99.90
41310;DHT22;27057;51.438;-0.010;2024-03-08T11:25:38;10.80;99.90
41310;DHT22;27057;51.438;-0.010;2024-03-08T11:28:16;10.80;99.90
41310;DHT22;27057;51.438;-0.010;2024-03-08T11:33:30;11.00;99.90
41310;DHT22;27057;51.438;-0.010;2024-03-08T11:38:45;11.40;99.90
41310;DHT22;27057;51.438;-0.010;2024-03-08T11:41:20;11.70;99.90
41310;DHT22;27057;51.438;-0.010;2024-03-08T11:43:49;12.00;99.90
41310;DHT22;27057;51.438;-0.010;2024-03-08T11:46:17;12.10;99.90
41310;DHT22;27057;51.438;-0.010;2024-03-08T11:48:47;12.50;99.90
41310;DHT22;27057;51.438;-0.010;2024-03-08T11:51:17;12.60;99.90
41310;DHT22;27057;51.438;-0.010;2024-03-08T11:53:48;12.80;99.90
41310;DHT22;27057;51.438;-0.010;2024-03-08T11:56:17;12.40;99.90
41310;DHT22;27057;51.438;-0.010;2024-03-08T11:58:55;12.40;99.90
41310;DHT22;27057;51.438;-0.010;2024-03-08T12:01:26;12.50;99.90
41310;DHT22;27057;51.438;-0.010;2024-03-08T12:03:54;12.60;99.90
41310;DHT22;27057;51.438;-0.010;2024-03-08T12:06:23;12.60;99.90
41310;DHT22;27057;51.438;-0.010;2024-03-08T12:08:51;12.80;99.90
41310;DHT22;27057;51.438;-0.010;2024-03-08T12:11:18;12.80;99.90
41310;DHT22;27057;51.438;-0.010;2024-03-08T12:13:53;13.10;99.90
41310;DHT22;27057;51.438;-0.010;2024-03-08T12:16:21;13.40;99.90
41310;DHT22;27057;51.438;-0.010;2024-03-08T12:18:52;13.50;99.90
41310;DHT22;27057;51.438;-0.010;2024-03-08T12:21:21;13.50;99.90
41310;DHT22;27057;51.438;-0.010;2024-03-08T12:24:10;13.40;99.90
41310;DHT22;27057;51.438;-0.010;2024-03-08T12:26:39;13.50;99.90
41310;DHT22;27057;51.438;-0.010;2024-03-08T12:29:26;13.30;99.90
41310;DHT22;27057;51.438;-0.010;2024-03-08T12:31:58;13.40;99.90
41310;DHT22;27057;51.438;-0.010;2024-03-08T12:34:26;13.50;99.90
41310;DHT22;27057;51.438;-0.010;2024-03-08T12:37:00;13.60;99.90
41310;DHT22;27057;51.438;-0.010;2024-03-08T12:39:29;13.50;99.90
41310;DHT22;27057;51.438;-0.010;2024-03-08T12:41:57;13.90;99.90
41310;DHT22;27057;51.438;-0.010;2024-03-08T12:44:25;13.90;99.90
41310;DHT22;27057;51.438;-0.010;2024-03-08T12:46:53;14.10;99.90
41310;DHT22;27057;51.438;-0.010;2024-03-08T12:49:21;14.10;99.90
41310;DHT22;27057;51.438;-0.010;2024-03-08T12:51:50;14.10;99.90
41310;DHT22;27057;51.438;-0.010;2024-03-08T12:54:20;13.80;99.90
41310;DHT22;27057;51.438;-0.010;2024-03-08T12:56:51;13.60;99.90
41310;DHT22;27057;51.438;-0.010;2024-03-08T12:59:22;13.80;99.90
41310;DHT22;27057;51.438;-0.010;2024-03-08T13:01:52;14.00;99.90
41310;DHT22;27057;51.438;-0.010;2024-03-08T13:04:21;13.80;99.90
41310;DHT22;27057;51.438;-0.010;2024-03-08T13:06:49;14.10;99.90
41310;DHT22;27057;51.438;-0.010;2024-03-08T13:09:21;13.90;99.90
41310;DHT22;27057;51.438;-0.010;2024-03-08T13:11:49;14.30;99.90
41310;DHT22;27057;51.438;-0.010;2024-03-08T13:14:17;14.50;99.90
41310;DHT22;27057;51.438;-0.010;2024-03-08T13:16:44;14.50;99.90
41310;DHT22;27057;51.438;-0.010;2024-03-08T13:19:16;14.60;99.90
41310;DHT22;27057;51.438;-0.010;2024-03-08T13:21:43;14.70;99.90
41310;DHT22;27057;51.438;-0.010;2024-03-08T13:24:16;14.70;99.90
41310;DHT22;27057;51.438;-0.010;2024-03-08T13:26:47;15.10;99.90
41310;DHT22;27057;51.438;-0.010;2024-03-08T13:29:15;15.00;99.90
41310;DHT22;27057;51.438;-0.010;2024-03-08T13:31:43;15.10;99.90
41310;DHT22;27057;51.438;-0.010;2024-03-08T13:34:10;15.20;99.90
41310;DHT22;27057;51.438;-0.010;2024-03-08T13:36:38;15.50;99.90
41310;DHT22;27057;51.438;-0.010;2024-03-08T13:39:11;15.50;99.90
41310;DHT22;27057;51.438;-0.010;2024-03-08T13:41:48;15.10;99.90
41310;DHT22;27057;51.438;-0.010;2024-03-08T13:44:15;15.60;99.90
41310;DHT22;27057;51.438;-0.010;2024-03-08T13:46:47;15.40;99.90
41310;DHT22;27057;51.438;-0.010;2024-03-08T13:49:18;14.90;99.90
41310;DHT22;27057;51.438;-0.010;2024-03-08T13:51:46;14.70;99.90
41310;DHT22;27057;51.438;-0.010;2024-03-08T13:54:13;15.30;99.90
41310;DHT22;27057;51.438;-0.010;2024-03-08T13:56:43;15.00;99.90
41310;DHT22;27057;51.438;-0.010;2024-03-08T13:59:12;15.10;99.90
41310;DHT22;27057;51.438;-0.010;2024-03-08T14:01:40;15.00;99.90
41310;DHT22;27057;51.438;-0.010;2024-03-08T14:04:07;15.20;99.90
41310;DHT22;27057;51.438;-0.010;2024-03-08T14:06:35;15.50;99.90
41310;DHT22;27057;51.438;-0.010;2024-03-08T14:09:08;15.60;99.90
41310;DHT22;27057;51.438;-0.010;2024-03-08T14:11:35;15.70;99.90
41310;DHT22;27057;51.438;-0.010;2024-03-08T14:14:03;16.10;99.90
41310;DHT22;27057;51.438;-0.010;2024-03-08T14:16:31;16.00;99.90
41310;DHT22;27057;51.438;-0.010;2024-03-08T14:18:59;15.80;99.90
41310;DHT22;27057;51.438;-0.010;2024-03-08T14:21:33;15.90;99.90
41310;DHT22;27057;51.438;-0.010;2024-03-08T14:24:00;15.60;99.90
41310;DHT22;27057;51.438;-0.010;2024-03-08T14:26:28;15.40;99.90
41310;DHT22;27057;51.438;-0.010;2024-03-08T14:28:55;14.80;99.90
41310;DHT22;27057;51.438;-0.010;2024-03-08T14:31:24;13.70;99.90
41310;DHT22;27057;51.438;-0.010;2024-03-08T14:33:53;13.30;99.90
41310;DHT22;27057;51.438;-0.010;2024-03-08T14:36:20;12.60;99.90
41310;DHT22;27057;51.438;-0.010;2024-03-08T14:38:48;12.30;99.90
41310;DHT22;27057;51.438;-0.010;2024-03-08T14:41:15;12.30;99.90
41310;DHT22;27057;51.438;-0.010;2024-03-08T14:43:43;12.30;99.90
41310;DHT22;27057;51.438;-0.010;2024-03-08T14:46:15;12.30;99.90
41310;DHT22;27057;51.438;-0.010;2024-03-08T14:48:48;12.50;99.90
41310;DHT22;27057;51.438;-0.010;2024-03-08T14:51:21;11.90;99.90
41310;DHT22;27057;51.438;-0.010;2024-03-08T14:53:49;12.10;99.90
41310;DHT22;27057;51.438;-0.010;2024-03-08T14:56:17;11.80;99.90
41310;DHT22;27057;51.438;-0.010;2024-03-08T14:58:45;11.60;99.90
41310;DHT22;27057;51.438;-0.010;2024-03-08T15:01:13;11.30;99.90
41310;DHT22;27057;51.438;-0.010;2024-03-08T15:03:41;11.10;99.90
41310;DHT22;27057;51.438;-0.010;2024-03-08T15:06:10;11.20;99.90
41310;DHT22;27057;51.438;-0.010;2024-03-08T15:08:38;11.40;99.90
41310;DHT22;27057;51.438;-0.010;2024-03-08T15:11:07;11.30;99.90
41310;DHT22;27057;51.438;-0.010;2024-03-08T15:13:36;11.30;99.90
41310;DHT22;27057;51.438;-0.010;2024-03-08T15:16:08;11.30;99.90
41310;DHT22;27057;51.438;-0.010;2024-03-08T15:18:42;11.40;99.90
41310;DHT22;27057;51.438;-0.010;2024-03-08T15:21:18;11.30;99.90
41310;DHT22;27057;51.438;-0.010;2024-03-08T15:23:46;11.30;99.90
41310;DHT22;27057;51.438;-0.010;2024-03-08T15:26:19;11.00;99.90
41310;DHT22;27057;51.438;-0.010;2024-03-08T15:28:47;10.80;99.90
41310;DHT22;27057;51.438;-0.010;2024-03-08T15:31:18;10.80;99.90
41310;DHT22;27057;51.438;-0.010;2024-03-08T15:33:49;10.80;99.90
41310;DHT22;27057;51.438;-0.010;2024-03-08T15:36:19;10.40;99.90
41310;DHT22;27057;51.438;-0.010;2024-03-08T15:38:48;10.30;99.90
41310;DHT22;27057;51.438;-0.010;2024-03-08T15:41:19;10.50;99.90
41310;DHT22;27057;51.438;-0.010;2024-03-08T15:43:48;10.90;99.90
41310;DHT22;27057;51.438;-0.010;2024-03-08T15:46:18;11.40;99.90